PTDHU SBJF-SBRJ
Flight info
| Callsign | PTDHU |
|---|---|
| Flight time | 0h 39m |
| Altitude | 8000 |
| Route | PAI/N0195F090 DCT CXI |
| Aircraft | BE58/L-SDFGRY/C |
Departure
| Time | 2026-05-04 00:26 |
|---|---|
| Airport | Francisco de Assis Airport (SBJF) |
Arrival
| Time | 2026-05-04 01:05 |
|---|---|
| Airport | Santos Dumont Airport (SBRJ) |
| Time | Latitude | Longitude | Altitude | Speed | Heading |
|---|---|---|---|---|---|
| 2026-05-04 00:14 | -21.79256 | -43.38721 | 3006 ft | 0 kts | 54° |
| 2026-05-04 00:21 | -21.79250 | -43.38710 | 3009 ft | 4 kts | 75° |
| 2026-05-04 00:22 | -21.79251 | -43.38669 | 3004 ft | 0 kts | 96° |
| 2026-05-04 00:22 | -21.79262 | -43.38642 | 3004 ft | 8 kts | 133° |
| 2026-05-04 00:23 | -21.79305 | -43.38626 | 3004 ft | 12 kts | 184° |
| 2026-05-04 00:23 | -21.79394 | -43.38635 | 3005 ft | 13 kts | 185° |
| 2026-05-04 00:23 | -21.79491 | -43.38644 | 3002 ft | 14 kts | 185° |
| 2026-05-04 00:23 | -21.79592 | -43.38654 | 3004 ft | 15 kts | 185° |
| 2026-05-04 00:24 | -21.79693 | -43.38664 | 3006 ft | 15 kts | 185° |
| 2026-05-04 00:24 | -21.79785 | -43.38664 | 3005 ft | 9 kts | 146° |
| 2026-05-04 00:24 | -21.79834 | -43.38666 | 3005 ft | 10 kts | 262° |
| 2026-05-04 00:24 | -21.79804 | -43.38676 | 3005 ft | 0 kts | 5° |
| 2026-05-04 00:25 | -21.79646 | -43.38660 | 3005 ft | 62 kts | 5° |
| 2026-05-04 00:25 | -21.78989 | -43.38595 | 3045 ft | 118 kts | 5° |
| 2026-05-04 00:25 | -21.78129 | -43.38484 | 3334 ft | 130 kts | 10° |
| 2026-05-04 00:26 | -21.77214 | -43.38358 | 3689 ft | 134 kts | 356° |
| 2026-05-04 00:26 | -21.76419 | -43.38761 | 4099 ft | 131 kts | 310° |
| 2026-05-04 00:26 | -21.75923 | -43.39579 | 4433 ft | 128 kts | 281° |
| 2026-05-04 00:26 | -21.75975 | -43.40478 | 4781 ft | 123 kts | 240° |
| 2026-05-04 00:27 | -21.76597 | -43.41068 | 5050 ft | 120 kts | 192° |
| 2026-05-04 00:27 | -21.77429 | -43.41227 | 5309 ft | 125 kts | 185° |
| 2026-05-04 00:27 | -21.78294 | -43.41330 | 5621 ft | 124 kts | 186° |
| 2026-05-04 00:27 | -21.79146 | -43.41466 | 5941 ft | 123 kts | 186° |
| 2026-05-04 00:28 | -21.79986 | -43.41602 | 6256 ft | 122 kts | 185° |
| 2026-05-04 00:28 | -21.80825 | -43.41737 | 6573 ft | 121 kts | 185° |
| 2026-05-04 00:28 | -21.81667 | -43.41866 | 6876 ft | 123 kts | 186° |
| 2026-05-04 00:28 | -21.82512 | -43.41991 | 7176 ft | 123 kts | 186° |
| 2026-05-04 00:29 | -21.83368 | -43.42106 | 7442 ft | 126 kts | 186° |
| 2026-05-04 00:29 | -21.84257 | -43.42221 | 7686 ft | 131 kts | 186° |
| 2026-05-04 00:29 | -21.85191 | -43.42372 | 7863 ft | 140 kts | 199° |
| 2026-05-04 00:29 | -21.86028 | -43.42953 | 8004 ft | 147 kts | 217° |
| 2026-05-04 00:30 | -21.86858 | -43.43637 | 8150 ft | 152 kts | 217° |
| 2026-05-04 00:30 | -21.87735 | -43.44309 | 8248 ft | 159 kts | 214° |
| 2026-05-04 00:30 | -21.88688 | -43.44983 | 8257 ft | 169 kts | 212° |
| 2026-05-04 00:30 | -21.89699 | -43.45679 | 8260 ft | 176 kts | 212° |
| 2026-05-04 00:31 | -21.90751 | -43.46400 | 8254 ft | 182 kts | 212° |
| 2026-05-04 00:31 | -21.91824 | -43.47134 | 8259 ft | 183 kts | 212° |
| 2026-05-04 00:31 | -21.92901 | -43.47873 | 8253 ft | 184 kts | 212° |
| 2026-05-04 00:31 | -21.93983 | -43.48617 | 8253 ft | 185 kts | 213° |
| 2026-05-04 00:32 | -21.95063 | -43.49360 | 8257 ft | 185 kts | 212° |
| 2026-05-04 00:32 | -21.96151 | -43.50105 | 8259 ft | 185 kts | 212° |
| 2026-05-04 00:32 | -21.97238 | -43.50852 | 8254 ft | 186 kts | 213° |
| 2026-05-04 00:32 | -21.98325 | -43.51598 | 8256 ft | 185 kts | 213° |
| 2026-05-04 00:33 | -21.99411 | -43.52343 | 8256 ft | 185 kts | 213° |
| 2026-05-04 00:33 | -22.01585 | -43.53837 | 8254 ft | 185 kts | 213° |
| 2026-05-04 00:33 | -22.02672 | -43.54583 | 8258 ft | 186 kts | 213° |
| 2026-05-04 00:34 | -22.03761 | -43.55332 | 8258 ft | 185 kts | 213° |
| 2026-05-04 00:34 | -22.04848 | -43.56079 | 8259 ft | 186 kts | 213° |
| 2026-05-04 00:34 | -22.05937 | -43.56828 | 8260 ft | 186 kts | 213° |
| 2026-05-04 00:34 | -22.07023 | -43.57575 | 8260 ft | 185 kts | 213° |
| 2026-05-04 00:35 | -22.08112 | -43.58323 | 8264 ft | 185 kts | 213° |
| 2026-05-04 00:35 | -22.09200 | -43.59071 | 8262 ft | 185 kts | 213° |
| 2026-05-04 00:35 | -22.10288 | -43.59820 | 8264 ft | 185 kts | 213° |
| 2026-05-04 00:35 | -22.11375 | -43.60568 | 8260 ft | 185 kts | 213° |
| 2026-05-04 00:36 | -22.12460 | -43.61314 | 8264 ft | 185 kts | 213° |
| 2026-05-04 00:36 | -22.13561 | -43.62072 | 8262 ft | 185 kts | 213° |
| 2026-05-04 00:36 | -22.14629 | -43.62807 | 8262 ft | 185 kts | 213° |
| 2026-05-04 00:36 | -22.15726 | -43.63562 | 8263 ft | 185 kts | 213° |
| 2026-05-04 00:37 | -22.16810 | -43.64310 | 8261 ft | 185 kts | 213° |
| 2026-05-04 00:37 | -22.17894 | -43.65056 | 8263 ft | 185 kts | 213° |
| 2026-05-04 00:37 | -22.18978 | -43.65803 | 8264 ft | 185 kts | 213° |
| 2026-05-04 00:37 | -22.20062 | -43.66549 | 8264 ft | 185 kts | 213° |
| 2026-05-04 00:38 | -22.21144 | -43.67295 | 8268 ft | 185 kts | 213° |
| 2026-05-04 00:38 | -22.22227 | -43.68042 | 8263 ft | 185 kts | 213° |
| 2026-05-04 00:38 | -22.23311 | -43.68789 | 8265 ft | 185 kts | 213° |
| 2026-05-04 00:38 | -22.24393 | -43.69536 | 8264 ft | 185 kts | 213° |
| 2026-05-04 00:39 | -22.25473 | -43.70281 | 8260 ft | 185 kts | 213° |
| 2026-05-04 00:39 | -22.26555 | -43.71026 | 8260 ft | 185 kts | 213° |
| 2026-05-04 00:39 | -22.27636 | -43.71772 | 8259 ft | 184 kts | 213° |
| 2026-05-04 00:39 | -22.28718 | -43.72519 | 8259 ft | 185 kts | 213° |
| 2026-05-04 00:40 | -22.29799 | -43.73266 | 8262 ft | 185 kts | 213° |
| 2026-05-04 00:40 | -22.30885 | -43.74015 | 8263 ft | 185 kts | 213° |
| 2026-05-04 00:40 | -22.31984 | -43.74773 | 8263 ft | 185 kts | 213° |
| 2026-05-04 00:40 | -22.33069 | -43.75523 | 8262 ft | 185 kts | 213° |
| 2026-05-04 00:41 | -22.34154 | -43.76273 | 8264 ft | 185 kts | 213° |
| 2026-05-04 00:41 | -22.35239 | -43.77022 | 8264 ft | 185 kts | 213° |
| 2026-05-04 00:41 | -22.36325 | -43.77773 | 8262 ft | 185 kts | 213° |
| 2026-05-04 00:41 | -22.37410 | -43.78523 | 8265 ft | 186 kts | 213° |
| 2026-05-04 00:42 | -22.38500 | -43.79276 | 8263 ft | 186 kts | 213° |
| 2026-05-04 00:42 | -22.39591 | -43.80030 | 8260 ft | 186 kts | 214° |
| 2026-05-04 00:42 | -22.40681 | -43.80784 | 8261 ft | 186 kts | 214° |
| 2026-05-04 00:42 | -22.41771 | -43.81538 | 8263 ft | 186 kts | 214° |
| 2026-05-04 00:43 | -22.42860 | -43.82291 | 8259 ft | 186 kts | 213° |
| 2026-05-04 00:43 | -22.44010 | -43.82909 | 8255 ft | 187 kts | 194° |
| 2026-05-04 00:43 | -22.45301 | -43.82846 | 8251 ft | 189 kts | 162° |
| 2026-05-04 00:43 | -22.46411 | -43.82084 | 8249 ft | 191 kts | 141° |
| 2026-05-04 00:44 | -22.47478 | -43.81213 | 8124 ft | 196 kts | 147° |
| 2026-05-04 00:44 | -22.48645 | -43.80447 | 7939 ft | 197 kts | 151° |
| 2026-05-04 00:44 | -22.49832 | -43.79708 | 7751 ft | 197 kts | 151° |
| 2026-05-04 00:44 | -22.51017 | -43.78958 | 7565 ft | 197 kts | 150° |
| 2026-05-04 00:45 | -22.52198 | -43.78205 | 7373 ft | 197 kts | 150° |
| 2026-05-04 00:45 | -22.53380 | -43.77453 | 7186 ft | 197 kts | 150° |
| 2026-05-04 00:45 | -22.54560 | -43.76702 | 6995 ft | 196 kts | 150° |
| 2026-05-04 00:45 | -22.55735 | -43.75954 | 6812 ft | 196 kts | 150° |
| 2026-05-04 00:46 | -22.56906 | -43.75209 | 6627 ft | 195 kts | 150° |
| 2026-05-04 00:46 | -22.58057 | -43.74476 | 6533 ft | 189 kts | 150° |
| 2026-05-04 00:46 | -22.59189 | -43.73753 | 6478 ft | 185 kts | 150° |
| 2026-05-04 00:46 | -22.60288 | -43.73052 | 6425 ft | 182 kts | 150° |
| 2026-05-04 00:47 | -22.61379 | -43.72359 | 6368 ft | 181 kts | 150° |
| 2026-05-04 00:47 | -22.62457 | -43.71673 | 6317 ft | 179 kts | 150° |
| 2026-05-04 00:47 | -22.63527 | -43.70990 | 6255 ft | 178 kts | 150° |
| 2026-05-04 00:47 | -22.64583 | -43.70316 | 6240 ft | 174 kts | 150° |
| 2026-05-04 00:48 | -22.65621 | -43.69654 | 6237 ft | 172 kts | 150° |
| 2026-05-04 00:48 | -22.66643 | -43.69002 | 6236 ft | 170 kts | 150° |
| 2026-05-04 00:48 | -22.67660 | -43.68354 | 6226 ft | 169 kts | 150° |
| 2026-05-04 00:48 | -22.68676 | -43.67706 | 6231 ft | 170 kts | 150° |
| 2026-05-04 00:49 | -22.69699 | -43.67053 | 6227 ft | 171 kts | 150° |
| 2026-05-04 00:49 | -22.70727 | -43.66397 | 6229 ft | 172 kts | 150° |
| 2026-05-04 00:49 | -22.71761 | -43.65738 | 6232 ft | 173 kts | 150° |
| 2026-05-04 00:49 | -22.72798 | -43.65075 | 6233 ft | 173 kts | 150° |
| 2026-05-04 00:50 | -22.73836 | -43.64413 | 6233 ft | 173 kts | 150° |
| 2026-05-04 00:50 | -22.74877 | -43.63748 | 6232 ft | 174 kts | 150° |
| 2026-05-04 00:50 | -22.75918 | -43.63082 | 6233 ft | 174 kts | 150° |
| 2026-05-04 00:50 | -22.76961 | -43.62418 | 6236 ft | 174 kts | 150° |
| 2026-05-04 00:51 | -22.77731 | -43.61926 | 6233 ft | 174 kts | 150° |
| 2026-05-04 00:51 | -22.78625 | -43.61353 | 6232 ft | 174 kts | 150° |
| 2026-05-04 00:51 | -22.79671 | -43.60685 | 6233 ft | 174 kts | 150° |
| 2026-05-04 00:51 | -22.80715 | -43.60018 | 6232 ft | 174 kts | 150° |
| 2026-05-04 00:52 | -22.81758 | -43.59351 | 6235 ft | 174 kts | 150° |
| 2026-05-04 00:52 | -22.82798 | -43.58685 | 6237 ft | 173 kts | 149° |
| 2026-05-04 00:52 | -22.83841 | -43.58011 | 6237 ft | 176 kts | 150° |
| 2026-05-04 00:52 | -22.84904 | -43.57340 | 6237 ft | 177 kts | 150° |
| 2026-05-04 00:53 | -22.85963 | -43.56665 | 6237 ft | 177 kts | 150° |
| 2026-05-04 00:53 | -22.87024 | -43.55985 | 6235 ft | 177 kts | 150° |
| 2026-05-04 00:53 | -22.88081 | -43.55306 | 6233 ft | 176 kts | 150° |
| 2026-05-04 00:53 | -22.89151 | -43.54620 | 6234 ft | 177 kts | 150° |
| 2026-05-04 00:54 | -22.89853 | -43.54171 | 6236 ft | 177 kts | 150° |
| 2026-05-04 00:54 | -22.90913 | -43.53493 | 6234 ft | 177 kts | 150° |
| 2026-05-04 00:54 | -22.91975 | -43.52813 | 6216 ft | 177 kts | 150° |
| 2026-05-04 00:54 | -22.93036 | -43.52133 | 6215 ft | 177 kts | 150° |
| 2026-05-04 00:55 | -22.93992 | -43.51273 | 6073 ft | 184 kts | 127° |
| 2026-05-04 00:55 | -22.94437 | -43.49968 | 5871 ft | 190 kts | 97° |
| 2026-05-04 00:55 | -22.94196 | -43.48558 | 5674 ft | 195 kts | 66° |
| 2026-05-04 00:55 | -22.93429 | -43.47337 | 5475 ft | 197 kts | 56° |
| 2026-05-04 00:56 | -22.92755 | -43.46072 | 5234 ft | 191 kts | 66° |
| 2026-05-04 00:56 | -22.92213 | -43.44770 | 4985 ft | 187 kts | 68° |
| 2026-05-04 00:56 | -22.91684 | -43.43485 | 4729 ft | 186 kts | 68° |
| 2026-05-04 00:56 | -22.91147 | -43.42215 | 4477 ft | 185 kts | 67° |
| 2026-05-04 00:57 | -22.90609 | -43.40951 | 4224 ft | 183 kts | 68° |
| 2026-05-04 00:57 | -22.90080 | -43.39708 | 4015 ft | 177 kts | 68° |
| 2026-05-04 00:57 | -22.89583 | -43.38538 | 3989 ft | 168 kts | 68° |
| 2026-05-04 00:57 | -22.89101 | -43.37401 | 3965 ft | 163 kts | 68° |
| 2026-05-04 00:58 | -22.88638 | -43.36311 | 3961 ft | 155 kts | 69° |
| 2026-05-04 00:58 | -22.88282 | -43.35229 | 3860 ft | 147 kts | 88° |
| 2026-05-04 00:58 | -22.88363 | -43.34163 | 3672 ft | 141 kts | 101° |
| 2026-05-04 00:58 | -22.88475 | -43.33112 | 3470 ft | 132 kts | 100° |
| 2026-05-04 00:59 | -22.88562 | -43.32195 | 3256 ft | 116 kts | 100° |
| 2026-05-04 00:59 | -22.88643 | -43.31344 | 3058 ft | 112 kts | 100° |
| 2026-05-04 00:59 | -22.88722 | -43.30506 | 2923 ft | 112 kts | 100° |
| 2026-05-04 00:59 | -22.88799 | -43.29671 | 2794 ft | 111 kts | 101° |
| 2026-05-04 01:00 | -22.88878 | -43.28836 | 2667 ft | 112 kts | 100° |
| 2026-05-04 01:00 | -22.88955 | -43.27995 | 2541 ft | 112 kts | 100° |
| 2026-05-04 01:00 | -22.89031 | -43.27165 | 2492 ft | 108 kts | 100° |
| 2026-05-04 01:00 | -22.89146 | -43.26374 | 2484 ft | 105 kts | 116° |
| 2026-05-04 01:01 | -22.89475 | -43.25672 | 2484 ft | 106 kts | 119° |
| 2026-05-04 01:01 | -22.89798 | -43.24947 | 2485 ft | 107 kts | 120° |
| 2026-05-04 01:01 | -22.90124 | -43.24221 | 2490 ft | 108 kts | 120° |
| 2026-05-04 01:01 | -22.90453 | -43.23486 | 2497 ft | 109 kts | 119° |
| 2026-05-04 01:02 | -22.90785 | -43.22743 | 2494 ft | 109 kts | 120° |
| 2026-05-04 01:02 | -22.91118 | -43.22002 | 2494 ft | 110 kts | 119° |
| 2026-05-04 01:02 | -22.91445 | -43.21271 | 2498 ft | 111 kts | 118° |
| 2026-05-04 01:02 | -22.91779 | -43.20523 | 2460 ft | 112 kts | 120° |
| 2026-05-04 01:03 | -22.92136 | -43.19750 | 2280 ft | 112 kts | 124° |
| 2026-05-04 01:03 | -22.92649 | -43.19140 | 2025 ft | 110 kts | 140° |
| 2026-05-04 01:03 | -22.93137 | -43.18504 | 1714 ft | 109 kts | 123° |
| 2026-05-04 01:03 | -22.93363 | -43.17718 | 1268 ft | 113 kts | 96° |
| 2026-05-04 01:04 | -22.93186 | -43.16901 | 902 ft | 112 kts | 63° |
| 2026-05-04 01:04 | -22.92630 | -43.16326 | 530 ft | 110 kts | 20° |
| 2026-05-04 01:04 | -22.91918 | -43.16237 | 127 ft | 98 kts | 360° |
| 2026-05-04 01:04 | -22.91333 | -43.16267 | 15 ft | 68 kts | 356° |
| 2026-05-04 01:05 | -22.90983 | -43.16284 | 17 ft | 34 kts | 356° |
| 2026-05-04 01:05 | -22.90764 | -43.16301 | 19 ft | 25 kts | 355° |
| 2026-05-04 01:05 | -22.90602 | -43.16312 | 19 ft | 18 kts | 356° |
| 2026-05-04 01:05 | -22.90492 | -43.16353 | 18 ft | 15 kts | 282° |
| 2026-05-04 01:06 | -22.90497 | -43.16480 | 17 ft | 16 kts | 266° |
| 2026-05-04 01:06 | -22.90504 | -43.16543 | 16 ft | 9 kts | 248° |
| 2026-05-04 01:06 | -22.90582 | -43.16553 | 16 ft | 16 kts | 175° |
| 2026-05-04 01:06 | -22.90642 | -43.16519 | 17 ft | 11 kts | 81° |
| 2026-05-04 01:07 | -22.90662 | -43.16465 | 17 ft | 5 kts | 177° |
| 2026-05-04 01:07 | -22.90664 | -43.16465 | 17 ft | 0 kts | 177° |